»·PEaware :: N716TH KSBP-KOXR

N716TH :: KSBP-KOXR

FLIGHT INFORMATION

Flight Status: Arrived
Operator: Privately registered:
United States
More flights under this callsign
Pilot: Danny R. (17997)
Aircraft: CESSNA 172 SKYHAWK
(C172)
More flights by this aircraft type
Origin: KSBP San Luis Co Regl
United States
Destination: KOXR Oxnard
United States
More flights between these airports :: More routes between these airports
Route: +
File this flight plan on PilotEdge
Remarks:
Altitude:
(Current/Filed)
0ft
Speed:
(Current/Filed)
0kts
Departed: 30-Apr-18 09:19 AM
Arrived: 30-Apr-18 10:09 AM
Distance/Time
Traveled:
94nm/0:50
Distance/Time
To Go:
Arrived

Flight Plot

Page will automatically refresh every two minutes.


Map Options




Map Legend


Flown Route
Filed Route
Departure Airport
Arrival Airport
Navaid (VOR, NDB)
Fix

Horizontal Profiles

Position Reports

Time Latitude Longitude Heading Altitude Ground
Speed
30-Apr-18 09:17 35.137650 -120.467589 138 3475ft 96kts
30-Apr-18 09:18 35.115642 -120.442976 138 3461ft 115kts
30-Apr-18 09:19 35.085749 -120.428057 165 3470ft 119kts
30-Apr-18 09:20 35.053995 -120.414555 152 3469ft 123kts
30-Apr-18 09:21 35.027706 -120.387740 136 3463ft 124kts
30-Apr-18 09:22 35.002989 -120.358171 136 3462ft 124kts
30-Apr-18 09:23 34.981810 -120.332688 137 3486ft 124kts
30-Apr-18 09:24 34.957026 -120.302904 138 3487ft 125kts
30-Apr-18 09:25 34.932404 -120.273356 136 3485ft 125kts
30-Apr-18 09:26 34.907756 -120.243766 136 3480ft 124kts
30-Apr-18 09:27 34.883996 -120.215267 135 3519ft 121kts
30-Apr-18 09:28 34.859844 -120.186364 136 3513ft 122kts
30-Apr-18 09:29 34.836659 -120.158548 134 3844ft 104kts
30-Apr-18 09:30 34.817948 -120.135990 137 4582ft 88kts
30-Apr-18 09:31 34.801270 -120.116100 132 5233ft 82kts
30-Apr-18 09:32 34.783197 -120.094504 135 5474ft 109kts
30-Apr-18 09:33 34.761091 -120.068265 136 5475ft 111kts
30-Apr-18 09:34 34.738949 -120.041906 136 5473ft 111kts
30-Apr-18 09:35 34.716416 -120.015892 135 5471ft 111kts
30-Apr-18 09:36 34.694314 -119.989648 135 5472ft 111kts
30-Apr-18 09:37 34.672203 -119.963355 135 5468ft 111kts
30-Apr-18 09:38 34.649972 -119.936922 136 5467ft 111kts
30-Apr-18 09:39 34.627835 -119.910633 136 5465ft 111kts
30-Apr-18 09:40 34.605648 -119.884302 135 5465ft 110kts
30-Apr-18 09:41 34.583110 -119.857546 136 5460ft 117kts
30-Apr-18 09:42 34.559906 -119.830069 139 5462ft 115kts
30-Apr-18 09:43 34.537210 -119.803197 139 5461ft 113kts
30-Apr-18 09:44 34.514832 -119.776730 139 5458ft 112kts
30-Apr-18 09:45 34.496146 -119.746087 126 5456ft 113kts
30-Apr-18 09:46 34.479595 -119.715264 126 5455ft 113kts
30-Apr-18 09:47 34.462162 -119.683211 126 5451ft 113kts
30-Apr-18 09:48 34.444714 -119.651181 125 5451ft 114kts
30-Apr-18 09:49 34.427316 -119.619271 126 5449ft 113kts
30-Apr-18 09:50 34.409908 -119.587376 127 5444ft 111kts
30-Apr-18 09:51 34.394116 -119.558568 123 4952ft 102kts
30-Apr-18 09:52 34.378485 -119.529980 123 4365ft 101kts
30-Apr-18 09:53 34.362948 -119.501582 123 3778ft 101kts
30-Apr-18 09:54 34.347368 -119.473108 123 3176ft 102kts
30-Apr-18 09:55 34.330820 -119.444621 133 2590ft 106kts
30-Apr-18 09:56 34.310201 -119.418479 133 2064ft 108kts
30-Apr-18 09:57 34.289267 -119.391958 133 1561ft 109kts
30-Apr-18 09:58 34.268601 -119.368357 140 1468ft 100kts
30-Apr-18 09:59 34.247555 -119.348479 148 1474ft 98kts
30-Apr-18 10:00 34.230065 -119.328574 115 1649ft 86kts
30-Apr-18 10:01 34.220968 -119.299708 109 1703ft 99kts
30-Apr-18 10:02 34.211991 -119.268744 99 1672ft 98kts
30-Apr-18 10:03 34.209897 -119.237280 87 1265ft 77kts
30-Apr-18 10:04 34.210662 -119.213573 82 981ft 72kts
30-Apr-18 10:05 34.211967 -119.191399 90 1003ft 66kts
30-Apr-18 10:06 34.208018 -119.171561 183 919ft 71kts
30-Apr-18 10:07 34.200728 -119.186834 268 376ft 60kts
30-Apr-18 10:08 34.200739 -119.202909 257 46ft 8kts
30-Apr-18 10:09 34.200055 -119.203157 179 46ft 0kts
30-Apr-18 10:10 34.199789 -119.205647 269 46ft 15kts
30-Apr-18 10:11 34.199129 -119.207614 98 46ft 0kts
30-Apr-18 10:12 34.199129 -119.207614 98 46ft 0kts

Navigation Log

Ident Type
1. KSBP Airport
2. KOXR Airport